Аэропорт: Пашковский. Краснодар

ICAO: URKK

METAR:
2018/09/23 11:00
URKK 231100Z 27005MPS 230V310 CAVOK 27/16 Q1015 R23L/CLRD70 NOSIG RMK QFE758
METAR:
2018/09/23 09:24
TAF URKK 230801Z 2309/2409 18003G08MPS CAVOK 
     FM231500 22005G10MPS 9999 SCT030CB 
      TEMPO 2315/2324 3100 -SHRA BKN011 BKN020CB